Forside
METAR-TAF:

METAR-TAF

Lufthavne :

Ankeny Regional Airport

Ankeny, Iowa, USA

Breddekreds: 41-41-24N, længdekreds: 093-33-57W, højde: 275 m

Aktuelle vejr

Denne rapport blev lavet for 19 minutter siden, kl. 11:35 UTC
Vind 14 kt fra sydøst
Temperatur 2°C
Fugtighed 93%
Tryk 1015 hPa
Sigt: 4.8 km
Overskyet i en højde af 500 ft
let regn

METAR: KIKV 241135Z AUTO 14014KT 3SM -RA OVC005 02/01 A2998 RMK AO2

Tid: 05:54 (11:54 UTC)


TAF: fraværende

Vejrobservationer og prognoser fra mere end 4000 lufthavne (METAR og TAF).

De gule og røde prikker repræsenterer de meteorologiske stationer.

Flyt musen over at se navnet på stationen.

Så klik over at se vejr observationer og prognoser.

At skifte det kort: Klik på de grønne knapper med et sort kors for at zoome ind; på den grønne knap med en bindestreg for at zoome ud; eller på de grønne pile for tilstødende kort.


METAR-TAF: